createdAt,value
2023-05-19T00:00:09.921Z,12.3840
2023-05-19T00:01:11.392Z,12.2244
2023-05-19T00:02:12.748Z,12.3369
2023-05-19T00:03:15.143Z,12.4235
2023-05-19T00:04:16.556Z,12.3495
2023-05-19T00:05:17.988Z,12.4719
2023-05-19T00:06:19.386Z,12.3962
2023-05-19T00:07:20.761Z,12.2802
2023-05-19T00:08:22.131Z,12.3527
2023-05-19T00:09:23.417Z,12.3554
2023-05-19T00:10:24.803Z,12.5405
2023-05-19T00:11:26.260Z,12.6051
2023-05-19T00:12:27.655Z,12.6824
2023-05-19T00:13:28.961Z,12.5275
2023-05-19T00:14:30.381Z,12.3797
2023-05-19T00:15:31.713Z,12.5888
2023-05-19T00:16:33.404Z,12.1921
2023-05-19T00:17:35.989Z,12.4098
2023-05-19T00:18:37.425Z,12.4187
2023-05-19T00:19:39.002Z,12.5115
2023-05-19T00:20:40.388Z,12.4360
2023-05-19T00:21:41.641Z,12.4546
2023-05-19T00:22:42.910Z,12.4653
2023-05-19T00:23:44.379Z,12.0575
2023-05-19T00:24:46.523Z,12.4739
2023-05-19T00:25:47.859Z,12.5318
2023-05-19T00:26:49.131Z,12.6042
2023-05-19T00:27:50.631Z,12.5640
2023-05-19T00:28:52.858Z,12.3823
2023-05-19T00:30:11.527Z,12.3314
2023-05-19T00:30:54.866Z,12.6597
2023-05-19T00:31:56.244Z,12.3438
2023-05-19T00:32:57.609Z,12.6747
2023-05-19T00:33:58.944Z,12.3107
2023-05-19T00:35:00.354Z,12.5692
2023-05-19T00:36:02.354Z,12.4493
2023-05-19T00:37:03.805Z,12.5333
2023-05-19T00:38:05.102Z,12.4515
2023-05-19T00:39:06.424Z,12.1918
2023-05-19T00:40:07.812Z,12.4026
2023-05-19T00:41:10.451Z,12.4002
2023-05-19T00:42:11.961Z,12.3285
2023-05-19T00:43:13.256Z,12.2520
2023-05-19T00:44:16.358Z,12.1574
2023-05-19T00:45:17.961Z,12.1246
2023-05-19T00:46:19.388Z,12.3426
2023-05-19T00:47:20.764Z,12.1539
2023-05-19T00:48:22.101Z,12.0611
2023-05-19T00:49:23.706Z,11.7038
2023-05-19T00:50:25.123Z,12.0440
2023-05-19T00:51:26.502Z,12.1962
2023-05-19T00:52:27.728Z,12.4041
2023-05-19T00:53:29.009Z,12.3696
2023-05-19T00:54:30.410Z,12.3032
2023-05-19T00:55:32.707Z,12.1771
2023-05-19T00:56:34.020Z,12.4027
2023-05-19T00:57:35.299Z,12.5848
2023-05-19T00:58:36.631Z,12.6250
2023-05-19T00:59:38.323Z,12.6632
2023-05-19T01:00:39.800Z,12.5223
2023-05-19T01:01:41.209Z,12.5840
2023-05-19T01:02:42.611Z,12.4687
2023-05-19T01:03:44.025Z,12.0290
2023-05-19T01:04:45.949Z,12.1249
2023-05-19T01:05:47.336Z,12.3110
2023-05-19T01:06:48.789Z,12.2486
2023-05-19T01:07:51.219Z,12.3205
2023-05-19T01:08:52.765Z,12.1284
2023-05-19T01:09:55.050Z,12.3296
2023-05-19T01:10:56.441Z,12.5118
2023-05-19T01:11:57.902Z,12.4527
2023-05-19T01:12:59.334Z,12.4584
2023-05-19T01:14:00.600Z,12.4483
2023-05-19T01:15:02.009Z,12.5683
2023-05-19T01:16:03.663Z,12.4609
2023-05-19T01:17:05.057Z,12.2425
2023-05-19T01:18:06.740Z,12.1496
2023-05-19T01:19:08.332Z,12.2830
2023-05-19T01:20:09.906Z,11.6988
2023-05-19T01:21:11.235Z,12.2317
2023-05-19T01:22:12.650Z,12.0043
2023-05-19T01:23:15.072Z,12.0584
2023-05-19T01:24:16.427Z,12.2060
2023-05-19T01:25:18.725Z,11.8606
2023-05-19T01:26:20.052Z,11.7427
2023-05-19T01:27:21.324Z,12.1164
2023-05-19T01:28:22.623Z,12.0134
2023-05-19T01:30:26.862Z,12.2941
2023-05-19T01:31:28.382Z,12.2742
2023-05-19T01:32:29.665Z,12.2907
2023-05-19T01:33:30.986Z,12.3711
2023-05-19T01:34:32.196Z,12.3612
2023-05-19T02:51:03.167Z,11.9429
2023-05-19T02:51:03.167Z,12.2477
2023-05-19T02:51:03.167Z,12.2732
2023-05-19T02:52:04.873Z,11.5055
2023-05-19T02:53:06.155Z,11.4138
2023-05-19T02:54:07.588Z,11.4715
2023-05-19T02:55:08.878Z,11.6400
2023-05-19T02:56:10.240Z,11.5364
2023-05-19T02:57:11.596Z,11.3969
2023-05-19T02:58:12.910Z,11.4729
2023-05-19T02:59:14.214Z,11.6470
2023-05-19T03:00:15.504Z,11.1208
2023-05-19T03:01:16.890Z,11.3806
2023-05-19T03:02:18.251Z,11.3755
2023-05-19T03:03:19.684Z,11.6341
2023-05-19T03:04:22.122Z,11.5571
2023-05-19T03:05:23.427Z,11.5475
2023-05-19T03:06:24.741Z,11.6510
2023-05-19T03:07:26.154Z,11.5085
2023-05-19T03:08:27.462Z,11.3183
2023-05-19T03:09:28.809Z,11.6623
2023-05-19T03:10:30.586Z,11.6854
2023-05-19T03:11:32.948Z,11.3991
2023-05-19T03:12:34.256Z,11.7501
2023-05-19T03:13:36.505Z,10.9621
2023-05-19T03:14:37.906Z,10.9855
2023-05-19T03:15:39.203Z,10.9029
2023-05-19T03:16:40.780Z,11.0539
2023-05-19T03:17:42.359Z,11.2342
2023-05-19T03:18:44.813Z,11.3678
2023-05-19T03:19:46.208Z,11.3821
2023-05-19T03:20:47.514Z,11.5056
2023-05-19T03:22:50.112Z,11.3425
2023-05-19T03:23:51.364Z,11.5847
2023-05-19T03:24:53.290Z,11.6335
2023-05-19T03:25:54.584Z,11.7718
2023-05-19T03:26:55.946Z,10.7283
2023-05-19T03:27:57.220Z,11.2358
2023-05-19T03:28:58.584Z,11.3570
2023-05-19T03:30:01.072Z,11.3144
2023-05-19T03:31:02.522Z,10.8437
2023-05-19T03:32:03.834Z,11.2293
2023-05-19T03:33:05.455Z,11.0956
2023-05-19T03:34:07.800Z,10.7783
2023-05-19T03:35:09.216Z,11.0551
2023-05-19T03:36:10.523Z,11.1355
2023-05-19T03:37:11.864Z,11.2612
2023-05-19T03:38:13.164Z,11.3721
2023-05-19T03:39:14.509Z,11.4846
2023-05-19T03:40:15.997Z,11.1048
2023-05-19T03:41:17.269Z,11.2132
2023-05-19T03:42:18.787Z,11.3206
2023-05-19T03:43:20.107Z,11.2994
2023-05-19T03:44:22.459Z,11.4235
2023-05-19T03:45:23.764Z,11.1438
2023-05-19T03:46:25.070Z,11.3015
2023-05-19T03:47:26.358Z,11.2331
2023-05-19T03:48:27.682Z,11.1833
2023-05-19T03:49:29.027Z,11.3987
2023-05-19T03:50:30.611Z,11.3238
2023-05-19T03:51:32.100Z,11.1750
2023-05-19T03:52:33.440Z,11.2196
2023-05-19T03:53:34.776Z,11.3355
2023-05-19T03:54:36.119Z,10.8467
2023-05-19T03:55:37.443Z,10.9794
2023-05-19T03:56:38.817Z,11.1179
2023-05-19T03:57:40.197Z,11.1432
2023-05-19T03:58:42.207Z,11.1303
2023-05-19T03:59:43.572Z,10.9370
2023-05-19T04:00:44.928Z,11.1239
2023-05-19T04:01:46.244Z,11.1026
2023-05-19T04:02:47.812Z,10.9189
2023-05-19T04:03:49.191Z,10.3976
2023-05-19T04:04:50.750Z,10.9983
2023-05-19T04:05:52.292Z,10.9524
2023-05-19T04:06:53.552Z,10.9216
2023-05-19T04:07:54.941Z,10.5719
2023-05-19T04:08:56.397Z,10.8729
2023-05-19T04:09:57.751Z,11.0268
2023-05-19T04:10:59.126Z,10.9536
2023-05-19T04:12:00.454Z,11.2888
2023-05-19T04:13:01.841Z,10.9711
2023-05-19T04:14:03.148Z,11.2480
2023-05-19T04:15:04.573Z,11.3316
2023-05-19T04:16:06.910Z,10.9208
2023-05-19T04:17:08.259Z,11.2922
2023-05-19T04:18:09.718Z,11.4347
2023-05-19T04:19:12.164Z,11.4488
2023-05-19T04:20:13.550Z,11.1233
2023-05-19T04:21:14.953Z,10.9926
2023-05-19T04:22:16.224Z,11.1236
2023-05-19T04:23:17.668Z,11.4190
2023-05-19T04:24:18.917Z,11.4926
2023-05-19T04:25:20.325Z,11.6475
2023-05-19T04:26:21.694Z,11.6622
2023-05-19T04:27:23.002Z,11.4963
2023-05-19T04:28:24.401Z,11.6331
2023-05-19T04:29:25.730Z,11.1293
2023-05-19T04:30:27.096Z,11.3098
2023-05-19T04:31:28.426Z,11.0612
2023-05-19T04:32:29.854Z,11.2537
2023-05-19T04:33:31.128Z,11.1576
2023-05-19T04:34:32.517Z,11.1670
2023-05-19T04:35:33.883Z,11.5562
2023-05-19T04:36:35.325Z,11.6151
2023-05-19T04:37:36.630Z,11.6948
2023-05-19T04:38:37.986Z,11.3785
2023-05-19T05:27:53.554Z,11.5374
2023-05-19T05:27:53.554Z,11.7032
2023-05-19T05:27:53.554Z,11.2345
2023-05-19T05:28:25.470Z,11.8379
2023-05-19T05:29:26.872Z,11.6154
2023-05-19T05:30:28.144Z,11.7050
2023-05-19T05:31:29.558Z,11.8543
2023-05-19T05:32:30.912Z,11.8730
2023-05-19T05:33:32.257Z,11.9189
2023-05-19T05:34:34.628Z,11.5426
2023-05-19T05:35:36.013Z,11.8304
2023-05-19T05:36:37.299Z,11.9019
2023-05-19T05:37:38.699Z,11.5260
2023-05-19T05:38:39.974Z,11.9192
2023-05-19T05:39:41.342Z,11.9640
2023-05-19T05:40:42.649Z,11.7903
2023-05-19T05:41:44.079Z,11.8685
2023-05-19T05:42:45.345Z,11.8602
2023-05-19T05:43:46.717Z,11.4502
2023-05-19T05:44:48.007Z,12.0072
2023-05-19T05:45:49.398Z,11.9721
2023-05-19T05:46:50.653Z,11.6546
2023-05-19T05:47:52.041Z,11.6629
2023-05-19T05:48:53.314Z,11.4068
2023-05-19T05:49:54.608Z,11.2939
2023-05-19T05:50:55.937Z,11.6693
2023-05-19T05:52:05.792Z,11.7087
2023-05-19T05:52:57.976Z,11.6835
2023-05-19T05:53:59.239Z,11.8838
2023-05-19T05:55:00.541Z,11.9092
2023-05-19T05:56:01.851Z,11.4748
2023-05-19T05:57:03.206Z,11.1116
2023-05-19T05:58:04.532Z,11.4018
2023-05-19T05:59:05.828Z,11.3984
2023-05-19T06:00:07.111Z,11.7129
2023-05-19T06:01:08.442Z,11.6874
2023-05-19T06:02:09.791Z,11.6571
2023-05-19T06:03:11.232Z,11.4907
2023-05-19T06:04:12.663Z,11.3126
2023-05-19T06:05:14.035Z,11.5745
2023-05-19T06:06:15.358Z,11.2677
2023-05-19T06:07:16.717Z,11.3795
2023-05-19T06:08:18.025Z,11.2543
2023-05-19T06:09:19.398Z,11.2988
2023-05-19T06:10:20.772Z,11.4043
2023-05-19T06:11:22.062Z,11.6716
2023-05-19T06:12:23.410Z,11.2322
2023-05-19T06:13:24.765Z,11.2070
2023-05-19T06:14:25.998Z,11.0576
2023-05-19T06:16:27.935Z,11.2996
2023-05-19T06:17:29.376Z,11.1017
2023-05-19T06:18:30.664Z,11.1275
2023-05-19T06:19:32.052Z,11.3255
2023-05-19T06:20:33.425Z,11.1127
2023-05-19T06:21:35.767Z,10.9161
2023-05-19T06:22:37.055Z,11.2794
2023-05-19T06:23:38.423Z,11.2518
2023-05-19T06:24:39.792Z,10.9269
2023-05-19T06:25:41.055Z,11.3003
2023-05-19T06:26:42.326Z,11.1928
2023-05-19T06:27:43.669Z,11.2325
2023-05-19T06:28:44.926Z,11.2453
2023-05-19T06:29:46.285Z,11.4475
2023-05-19T06:30:47.598Z,11.3880
2023-05-19T06:31:48.938Z,11.5711
2023-05-19T06:32:50.359Z,11.2092
2023-05-19T06:33:51.638Z,11.3199
2023-05-19T06:34:53.043Z,11.0446
2023-05-19T06:35:54.349Z,11.4218
2023-05-19T06:36:55.648Z,11.7038
2023-05-19T06:37:56.977Z,11.7384
2023-05-19T06:38:59.242Z,11.7049
2023-05-19T06:39:58.593Z,11.6736
2023-05-19T06:40:59.866Z,10.8421
2023-05-19T06:42:01.173Z,11.3459
2023-05-19T06:43:02.509Z,11.3512
2023-05-19T06:44:03.801Z,11.2306
2023-05-19T06:45:05.133Z,11.1049
2023-05-19T06:46:06.446Z,11.4430
2023-05-19T06:47:07.833Z,10.9383
2023-05-19T06:48:09.315Z,10.6335
2023-05-19T06:49:10.625Z,11.0047
2023-05-19T06:50:11.941Z,11.3261
2023-05-19T06:51:13.226Z,11.3107
2023-05-19T06:52:14.539Z,11.3594
2023-05-19T06:53:15.819Z,11.4144
2023-05-19T06:54:17.127Z,11.5196
2023-05-19T06:55:18.402Z,11.6368
2023-05-19T06:56:19.745Z,11.5625
2023-05-19T06:57:21.043Z,10.7946
2023-05-19T06:58:22.324Z,10.9458
2023-05-19T06:59:23.659Z,10.6020
2023-05-19T07:00:24.952Z,11.0228
2023-05-19T07:01:26.248Z,11.2260
2023-05-19T07:02:27.613Z,11.2956
2023-05-19T07:03:29.041Z,11.0251
2023-05-19T07:04:30.466Z,11.1589
2023-05-19T07:05:31.791Z,11.1460
2023-05-19T07:06:33.077Z,10.8174
2023-05-19T07:07:34.348Z,10.9139
2023-05-19T07:08:35.737Z,10.9223
2023-05-19T07:09:37.046Z,11.2693
2023-05-19T07:10:38.425Z,10.6336
2023-05-19T07:11:39.710Z,10.8143
2023-05-19T07:12:41.089Z,11.2270
2023-05-19T07:13:42.383Z,11.3005
2023-05-19T07:14:43.753Z,11.2468
2023-05-19T07:15:45.093Z,11.1561
2023-05-19T07:16:46.577Z,11.4080
2023-05-19T07:17:48.009Z,11.5534
2023-05-19T07:18:49.318Z,11.4551
2023-05-19T07:19:50.572Z,11.5622
2023-05-19T07:20:51.913Z,11.8302
2023-05-19T07:21:53.250Z,11.7544
2023-05-19T07:22:54.617Z,12.0370
2023-05-19T07:23:55.968Z,11.7635
2023-05-19T07:24:57.329Z,11.6000
2023-05-19T07:25:58.685Z,11.2448
2023-05-19T07:27:00.117Z,11.3146
2023-05-19T07:28:01.399Z,11.5522
2023-05-19T07:29:02.774Z,11.7436
2023-05-19T07:30:04.089Z,11.5411
2023-05-19T07:31:05.413Z,11.9044
2023-05-19T07:32:06.775Z,11.7851
2023-05-19T07:33:08.199Z,11.5828
2023-05-19T07:34:09.512Z,11.7656
2023-05-19T07:35:10.889Z,11.7595
2023-05-19T07:36:12.165Z,11.5789
2023-05-19T07:37:13.523Z,11.6231
2023-05-19T07:38:14.824Z,11.2005
2023-05-19T07:39:16.200Z,11.7583
2023-05-19T07:40:17.473Z,11.8583
2023-05-19T07:41:18.877Z,11.2597
2023-05-19T07:42:20.170Z,11.2761
2023-05-19T07:43:21.539Z,11.3371
2023-05-19T07:44:22.895Z,11.5860
2023-05-19T07:45:24.326Z,11.2957
2023-05-19T07:46:25.763Z,11.5157
2023-05-19T07:47:27.386Z,11.7209
2023-05-19T07:48:28.688Z,11.8882
2023-05-19T07:49:30.094Z,12.0047
2023-05-19T09:46:03.412Z,12.1897
2023-05-19T09:46:03.412Z,12.0440
2023-05-19T09:46:03.412Z,12.0222
2023-05-19T09:46:58.228Z,12.6257
2023-05-19T09:47:59.533Z,12.8248
2023-05-19T09:49:00.809Z,12.6741
2023-05-19T09:50:02.125Z,12.9909
2023-05-19T09:51:03.425Z,13.1182
2023-05-19T09:52:04.750Z,13.1035
2023-05-19T09:53:06.060Z,13.1185
2023-05-19T09:54:07.333Z,13.0498
2023-05-19T09:55:08.681Z,13.3316
2023-05-19T09:56:10.132Z,12.8070
2023-05-19T09:57:11.595Z,12.7318
2023-05-19T09:58:12.886Z,12.9310
2023-05-19T09:59:14.166Z,12.4689
2023-05-19T10:00:15.458Z,12.7347
2023-05-19T10:01:16.812Z,12.5023
2023-05-19T10:02:18.092Z,12.2806
2023-05-19T10:03:19.385Z,12.7671
2023-05-19T10:04:20.705Z,12.2756
2023-05-19T10:05:22.004Z,12.6288
2023-05-19T10:06:23.284Z,12.8610
2023-05-19T10:07:24.666Z,12.9193
2023-05-19T10:08:25.949Z,13.0357
2023-05-19T10:09:27.263Z,12.9378
2023-05-19T10:10:28.592Z,12.9168
2023-05-19T10:11:29.843Z,13.1228
2023-05-19T10:12:31.134Z,13.2543
2023-05-19T10:13:32.478Z,13.1742
2023-05-19T10:14:33.782Z,13.2016
2023-05-19T10:15:40.751Z,13.1102
2023-05-19T10:16:35.854Z,13.0638
2023-05-19T10:17:37.183Z,13.2050
2023-05-19T10:18:39.876Z,13.2014
2023-05-19T10:19:41.508Z,13.2839
2023-05-19T10:20:43.799Z,13.5039
2023-05-19T10:21:45.245Z,13.5314
2023-05-19T10:22:46.601Z,13.5618
2023-05-19T10:23:48.146Z,12.9341
2023-05-19T10:24:50.181Z,13.4048
2023-05-19T10:25:51.834Z,13.4231
2023-05-19T10:26:53.528Z,12.9740
2023-05-19T10:27:55.214Z,13.0837
2023-05-19T10:28:58.246Z,13.2741
2023-05-19T10:30:00.281Z,13.4126
2023-05-19T10:31:03.315Z,13.1982
2023-05-19T10:32:05.141Z,13.2937
2023-05-19T10:33:06.796Z,12.9727
2023-05-19T10:34:09.079Z,13.2069
2023-05-19T10:35:10.710Z,12.6641
2023-05-19T10:36:13.041Z,13.3956
2023-05-19T10:37:14.993Z,13.1982
2023-05-19T10:38:16.785Z,13.4283
2023-05-19T10:39:18.864Z,13.4915
2023-05-19T10:40:20.884Z,13.3520
2023-05-19T10:41:23.828Z,13.5774
2023-05-19T10:42:25.986Z,13.4548
2023-05-19T10:43:29.068Z,13.5102
2023-05-19T10:44:28.769Z,13.5341
2023-05-19T10:45:34.014Z,13.7218
2023-05-19T10:46:32.910Z,13.8808
2023-05-19T10:47:37.325Z,13.5817
2023-05-19T10:48:37.231Z,13.4406
2023-05-19T10:49:38.913Z,13.7749
2023-05-19T10:50:42.433Z,13.6177
2023-05-19T10:51:41.719Z,13.9843
2023-05-19T10:52:44.765Z,14.0614
2023-05-19T10:53:46.682Z,13.8429
2023-05-19T10:54:48.860Z,14.0515
2023-05-19T10:55:52.938Z,14.2211
2023-05-19T10:56:51.739Z,14.2792
2023-05-19T10:57:53.853Z,14.2425
2023-05-19T10:58:57.030Z,14.3044
2023-05-19T10:59:59.287Z,14.4707
2023-05-19T11:01:01.997Z,14.7912
2023-05-19T11:02:03.882Z,14.8886
2023-05-19T11:03:06.884Z,14.8255
2023-05-19T11:04:08.770Z,14.4939
2023-05-19T11:05:11.022Z,14.9134
2023-05-19T11:06:14.285Z,15.0118
2023-05-19T11:07:16.871Z,14.8536
2023-05-19T11:08:19.110Z,15.0642
2023-05-19T11:09:31.112Z,14.7566
2023-05-19T11:10:21.774Z,14.8317
2023-05-19T11:11:24.289Z,14.7107
2023-05-19T11:12:26.538Z,15.0655
2023-05-19T11:13:29.596Z,15.3741
2023-05-19T11:14:32.773Z,15.3798
2023-05-19T11:15:32.517Z,15.1999
2023-05-19T11:16:37.440Z,15.4159
2023-05-19T11:17:36.296Z,15.4248
2023-05-19T11:18:38.500Z,14.6258
2023-05-19T11:19:40.841Z,14.5271
2023-05-19T11:20:45.119Z,15.1144
2023-05-19T11:21:44.239Z,14.9576
2023-05-19T11:22:46.037Z,13.8639
2023-05-19T11:23:48.466Z,14.4704
2023-05-19T11:24:51.275Z,14.3617
2023-05-19T11:25:52.837Z,14.7458
2023-05-19T11:26:55.893Z,14.8207
2023-05-19T11:27:55.183Z,14.9964
2023-05-19T11:28:59.242Z,14.9742
2023-05-19T11:30:00.010Z,15.0303
2023-05-19T11:30:59.334Z,14.8948
2023-05-19T11:31:59.844Z,14.8196
2023-05-19T11:33:02.295Z,15.1122
2023-05-19T11:34:02.499Z,15.1187
2023-05-19T11:35:05.280Z,15.2137
2023-05-19T11:36:08.282Z,15.2704
2023-05-19T11:37:12.255Z,15.5525
2023-05-19T11:38:10.816Z,15.5022
2023-05-19T11:46:26.256Z,15.8114
2023-05-19T11:46:26.256Z,14.4610
2023-05-19T11:46:26.256Z,15.2907
2023-05-19T11:46:57.236Z,14.9248
2023-05-19T11:56:05.118Z,15.1568
2023-05-19T11:56:05.118Z,15.6846
2023-05-19T11:56:05.118Z,15.0771
2023-05-19T11:56:19.585Z,15.0370
2023-05-19T12:02:21.938Z,16.4176
2023-05-19T12:03:13.446Z,16.6285
2023-05-19T12:04:23.745Z,16.2911
2023-05-19T12:05:15.659Z,16.5995
2023-05-19T12:06:14.462Z,16.3045
2023-05-19T12:07:16.959Z,16.1152
2023-05-19T12:08:24.764Z,16.5460
2023-05-19T12:09:32.792Z,16.8126
2023-05-19T12:12:59.459Z,15.5711
2023-05-19T12:41:21.432Z,17.5284
2023-05-19T12:42:22.782Z,17.0798
2023-05-19T12:46:11.964Z,17.7981
2023-05-19T12:46:32.965Z,17.8088
2023-05-19T12:47:45.597Z,17.0620
2023-05-19T12:48:43.070Z,17.5052
2023-05-19T12:49:33.030Z,17.7817
2023-05-19T12:52:00.422Z,17.9870
2023-05-19T12:52:55.155Z,17.8705
2023-05-19T12:53:49.611Z,17.7204
2023-05-19T12:54:58.041Z,17.0473
2023-05-19T12:55:51.520Z,17.2444
2023-05-19T12:56:55.075Z,17.0453
2023-05-19T12:57:45.420Z,17.6968
2023-05-19T12:58:46.356Z,17.0796
2023-05-19T12:59:48.619Z,17.0745
2023-05-19T13:00:50.307Z,17.2325
2023-05-19T13:01:59.526Z,17.2035
2023-05-19T13:02:56.758Z,17.4409
2023-05-19T13:04:06.535Z,17.4138
2023-05-19T13:05:13.768Z,16.7733
2023-05-19T13:06:15.575Z,17.5103
2023-05-19T13:07:12.887Z,17.3875
2023-05-19T13:08:13.144Z,17.2675
2023-05-19T13:09:29.552Z,16.3354
2023-05-19T13:10:15.787Z,16.1089
2023-05-19T13:11:21.176Z,15.7328
2023-05-19T13:12:30.231Z,16.5164
2023-05-19T13:16:51.759Z,16.6218
2023-05-19T13:16:51.759Z,16.9559
2023-05-19T13:17:05.150Z,17.1359
2023-05-19T13:18:20.586Z,16.5030
2023-05-19T13:19:25.482Z,16.9798
2023-05-19T13:20:45.056Z,16.4267
2023-05-19T13:21:25.846Z,16.9703
2023-05-19T13:22:22.395Z,16.3112
2023-05-19T13:24:24.950Z,16.9666
2023-05-19T13:24:49.779Z,17.0209
2023-05-19T13:40:33.199Z,15.1492
2023-05-19T13:41:17.545Z,16.6846
2023-05-19T13:42:18.912Z,16.3392
2023-05-19T13:43:20.293Z,16.0388
2023-05-19T13:44:21.894Z,16.4001
2023-05-19T13:45:23.294Z,16.4121
2023-05-19T13:46:36.513Z,15.7578
2023-05-19T13:47:25.384Z,16.2137
2023-05-19T13:48:26.880Z,16.1732
2023-05-19T13:49:28.361Z,15.9363
2023-05-19T13:50:29.764Z,16.2204
2023-05-19T13:51:31.158Z,16.3711
2023-05-19T13:52:32.564Z,16.0869
2023-05-19T13:53:34.363Z,16.1381
2023-05-19T13:54:35.723Z,16.3024
2023-05-19T13:55:37.183Z,15.8204
2023-05-19T13:56:38.579Z,15.6475
2023-05-19T13:57:40.688Z,16.0584
2023-05-19T13:58:43.052Z,15.7617
2023-05-19T13:59:57.714Z,15.4088
2023-05-19T14:00:45.370Z,15.1900
2023-05-19T14:01:46.956Z,15.5155
2023-05-19T14:02:48.450Z,15.6476
2023-05-19T14:03:50.024Z,15.9586
2023-05-19T14:04:51.599Z,15.9853
2023-05-19T14:05:53.133Z,16.0596
2023-05-19T14:06:55.677Z,15.9142
2023-05-19T14:07:57.131Z,16.2249
2023-05-19T14:08:58.691Z,15.5469
2023-05-19T14:10:00.131Z,16.2167
2023-05-19T14:11:12.632Z,15.6019
2023-05-19T14:12:04.090Z,15.9860
2023-05-19T14:13:30.376Z,15.9049
2023-05-19T14:14:06.361Z,15.9467
2023-05-19T14:15:09.015Z,15.8359
2023-05-19T14:16:10.466Z,15.3370
2023-05-19T14:17:11.786Z,15.8380
2023-05-19T14:18:13.164Z,16.0769
2023-05-19T14:19:14.502Z,15.9244
2023-05-19T14:20:16.958Z,15.8135
2023-05-19T14:21:18.317Z,16.1226
2023-05-19T14:22:20.687Z,15.9675
2023-05-19T14:23:22.048Z,16.2105
2023-05-19T14:24:23.341Z,15.7538
2023-05-19T14:25:24.730Z,16.0516
2023-05-19T14:26:27.403Z,16.0318
2023-05-19T14:27:26.768Z,16.2464
2023-05-19T14:28:28.157Z,15.5120
2023-05-19T14:29:29.467Z,16.0633
2023-05-19T14:30:30.874Z,16.1163
2023-05-19T14:31:32.154Z,15.6989
2023-05-19T14:32:33.534Z,15.6619
2023-05-19T14:33:35.701Z,15.7047
2023-05-19T14:34:37.203Z,15.5120
2023-05-19T14:35:38.751Z,15.7334
2023-05-19T14:36:40.114Z,15.7102
2023-05-19T14:37:41.419Z,15.5065
2023-05-19T14:38:42.844Z,15.4929
2023-05-19T14:39:44.098Z,15.3714
2023-05-19T14:40:45.454Z,15.5273
2023-05-19T14:41:46.819Z,15.7547
2023-05-19T14:42:48.179Z,15.8121
2023-05-19T14:43:49.518Z,15.5022
2023-05-19T14:44:50.830Z,15.1770
2023-05-19T14:45:52.160Z,15.9077
2023-05-19T14:46:53.547Z,16.2019
2023-05-19T14:47:54.927Z,15.9053
2023-05-19T14:48:56.391Z,15.6828
2023-05-19T14:49:57.647Z,15.5381
2023-05-19T14:50:58.981Z,15.4238
2023-05-19T14:52:00.266Z,14.9148
2023-05-19T14:53:01.633Z,15.3907
2023-05-19T14:54:03.008Z,14.9797
2023-05-19T14:55:04.409Z,15.3250
2023-05-19T14:56:06.543Z,15.4163
2023-05-19T14:57:07.827Z,15.1689
2023-05-19T14:58:19.729Z,15.2351
2023-05-19T14:59:09.889Z,15.4218
2023-05-19T15:00:11.182Z,15.4070
2023-05-19T15:01:12.570Z,15.6504
2023-05-19T15:02:13.893Z,15.8434
2023-05-19T15:03:15.311Z,15.8513
2023-05-19T15:04:16.736Z,16.1916
2023-05-19T15:05:18.075Z,15.9096
2023-05-19T15:06:19.465Z,15.7532
2023-05-19T15:07:20.823Z,15.4942
2023-05-19T15:08:22.124Z,15.3944
2023-05-19T15:09:23.477Z,15.6528
2023-05-19T15:10:24.820Z,16.0066
2023-05-19T15:11:26.141Z,15.9161
2023-05-19T15:12:27.435Z,15.8378
2023-05-19T15:13:28.760Z,15.5592
2023-05-19T15:14:31.068Z,15.1515
2023-05-19T15:15:30.341Z,15.2828
2023-05-19T15:16:31.666Z,15.2621
2023-05-19T15:17:32.969Z,15.5723
2023-05-19T15:18:34.241Z,15.7301
2023-05-19T15:19:35.611Z,15.7168
2023-05-19T15:20:36.935Z,15.1714
2023-05-19T15:21:38.220Z,15.8703
2023-05-19T15:22:39.556Z,15.4257
2023-05-19T15:23:40.837Z,15.3589
2023-05-19T15:24:42.208Z,15.8056
2023-05-19T15:25:43.473Z,15.7540
2023-05-19T15:26:44.765Z,15.8237
2023-05-19T15:27:46.091Z,15.9213
2023-05-19T15:28:47.841Z,15.4297
2023-05-19T15:29:49.111Z,14.9510
2023-05-19T15:30:50.455Z,15.1367
2023-05-19T15:31:51.803Z,15.0986
2023-05-19T15:32:53.180Z,14.9386
2023-05-19T15:33:54.497Z,15.0014
2023-05-19T15:34:56.050Z,15.3471
2023-05-19T15:35:57.735Z,15.2690
2023-05-19T15:36:59.020Z,15.1852
2023-05-19T15:38:00.352Z,15.6046
2023-05-19T15:39:01.695Z,15.2842
2023-05-19T15:40:03.984Z,15.2816
2023-05-19T15:41:05.609Z,14.7627
2023-05-19T15:42:06.952Z,14.5379
2023-05-19T15:43:08.205Z,15.1397
2023-05-19T15:44:09.483Z,15.1788
2023-05-19T15:45:10.784Z,14.9151
2023-05-19T15:46:12.072Z,14.9277
2023-05-19T15:47:13.391Z,14.8130
2023-05-19T15:48:14.685Z,14.6621
2023-05-19T15:49:15.935Z,14.5038
2023-05-19T15:50:17.290Z,14.9493
2023-05-19T15:51:18.601Z,14.6943
2023-05-19T15:52:19.864Z,14.2162
2023-05-19T15:53:21.161Z,14.8203
2023-05-19T15:54:22.464Z,14.5639
2023-05-19T15:55:23.756Z,14.8446
2023-05-19T15:56:25.069Z,14.9438
2023-05-19T15:57:26.472Z,15.1340
2023-05-19T15:58:27.751Z,14.5593
2023-05-19T15:59:29.043Z,14.7706
2023-05-19T16:00:30.345Z,14.5909
2023-05-19T16:01:31.655Z,14.5206
2023-05-19T16:02:32.996Z,14.7088
2023-05-19T16:03:34.361Z,14.5239
2023-05-19T16:04:35.739Z,14.3415
2023-05-19T16:05:37.048Z,14.6606
2023-05-19T16:06:38.327Z,14.5366
2023-05-19T16:07:39.620Z,14.3900
2023-05-19T16:08:40.964Z,14.5853
2023-05-19T16:09:42.260Z,14.5342
2023-05-19T16:10:43.526Z,14.5161
2023-05-19T16:11:44.830Z,14.7602
2023-05-19T16:12:46.147Z,14.6296
2023-05-19T16:13:47.426Z,14.2555
2023-05-19T16:14:48.807Z,14.3261
2023-05-19T16:15:50.113Z,14.1963
2023-05-19T16:16:51.503Z,14.6931
2023-05-19T16:17:52.810Z,14.6580
2023-05-19T16:18:54.197Z,14.4067
2023-05-19T16:19:55.431Z,14.7341
2023-05-19T16:20:56.718Z,14.4141
2023-05-19T16:21:58.025Z,14.4368
2023-05-19T16:22:59.343Z,13.9195
2023-05-19T16:24:00.693Z,13.9149
2023-05-19T16:25:01.941Z,14.0423
2023-05-19T16:26:03.242Z,14.4227
2023-05-19T16:27:04.550Z,14.1970
2023-05-19T16:28:05.907Z,14.7864
2023-05-19T16:29:07.172Z,14.2328
2023-05-19T16:30:08.494Z,14.3074
2023-05-19T16:31:09.760Z,14.4519
2023-05-19T16:32:11.083Z,14.2874
2023-05-19T16:33:12.444Z,14.5793
2023-05-19T16:34:13.734Z,14.4719
2023-05-19T16:35:15.048Z,14.4648
2023-05-19T16:36:16.304Z,14.9993
2023-05-19T16:37:17.639Z,14.7761
2023-05-19T16:38:18.914Z,14.7723
2023-05-19T16:39:20.242Z,14.6304
2023-05-19T16:40:21.497Z,14.8183
2023-05-19T16:41:22.802Z,14.6743
2023-05-19T16:42:24.102Z,14.7240
2023-05-19T16:43:25.432Z,14.5830
2023-05-19T16:44:26.689Z,14.2954
2023-05-19T16:45:28.039Z,14.3245
2023-05-19T16:46:31.300Z,14.0993
2023-05-19T16:47:29.712Z,14.3268
2023-05-19T16:48:30.967Z,14.3399
2023-05-19T16:49:32.239Z,14.3142
2023-05-19T16:50:33.751Z,14.8255
2023-05-19T16:51:35.219Z,14.6037
2023-05-19T16:52:36.555Z,14.7672
2023-05-19T16:53:37.830Z,14.7424
2023-05-19T16:54:39.136Z,14.3258
2023-05-19T16:55:40.582Z,14.9829
2023-05-19T16:56:41.926Z,14.5384
2023-05-19T16:57:43.182Z,14.9903
2023-05-19T16:58:44.661Z,14.5293
2023-05-19T16:59:45.912Z,14.2743
2023-05-19T17:00:47.233Z,14.8149
2023-05-19T17:01:48.550Z,14.7062
2023-05-19T17:02:49.902Z,14.7191
2023-05-19T17:03:51.290Z,14.7458
2023-05-19T17:04:52.535Z,15.0646
2023-05-19T17:05:53.819Z,14.5311
2023-05-19T17:06:55.122Z,14.2589
2023-05-19T17:07:56.384Z,14.7640
2023-05-19T17:08:57.714Z,14.9088
2023-05-19T17:09:58.989Z,15.0346
2023-05-19T17:11:00.291Z,14.8585
2023-05-19T17:12:01.577Z,15.3181
2023-05-19T17:13:02.883Z,15.0002
2023-05-19T17:14:04.173Z,14.8918
2023-05-19T17:15:05.459Z,14.4891
2023-05-19T17:16:06.772Z,14.4256
2023-05-19T17:17:08.162Z,14.5216
2023-05-19T17:18:09.516Z,14.1902
2023-05-19T17:19:10.863Z,14.5437
2023-05-19T17:20:12.116Z,14.4946
2023-05-19T17:21:13.430Z,14.0997
2023-05-19T17:22:14.700Z,14.5277
2023-05-19T17:23:16.003Z,14.2497